sensor_id;sensor_type;location;lat;lon;timestamp;temperature;humidity
17172;DHT22;8701;50.150;8.756;2023-07-02T00:00:47;17.70;99.90
17172;DHT22;8701;50.150;8.756;2023-07-02T00:04:52;17.70;99.90
17172;DHT22;8701;50.150;8.756;2023-07-02T00:08:55;17.80;99.90
17172;DHT22;8701;50.150;8.756;2023-07-02T00:12:59;17.80;99.90
17172;DHT22;8701;50.150;8.756;2023-07-02T00:17:01;17.80;99.90
17172;DHT22;8701;50.150;8.756;2023-07-02T00:21:05;17.80;99.90
17172;DHT22;8701;50.150;8.756;2023-07-02T00:25:08;17.80;99.90
17172;DHT22;8701;50.150;8.756;2023-07-02T00:29:11;17.70;99.90
17172;DHT22;8701;50.150;8.756;2023-07-02T00:33:15;17.70;99.90
17172;DHT22;8701;50.150;8.756;2023-07-02T00:37:17;17.70;99.90
17172;DHT22;8701;50.150;8.756;2023-07-02T00:41:19;17.60;99.90
17172;DHT22;8701;50.150;8.756;2023-07-02T00:45:23;17.60;99.90
17172;DHT22;8701;50.150;8.756;2023-07-02T00:49:27;17.60;99.90
17172;DHT22;8701;50.150;8.756;2023-07-02T00:53:29;17.60;99.90
17172;DHT22;8701;50.150;8.756;2023-07-02T00:57:33;17.60;99.90
17172;DHT22;8701;50.150;8.756;2023-07-02T01:01:37;17.60;99.90
17172;DHT22;8701;50.150;8.756;2023-07-02T01:05:40;17.60;99.90
17172;DHT22;8701;50.150;8.756;2023-07-02T01:09:43;17.50;99.90
17172;DHT22;8701;50.150;8.756;2023-07-02T01:13:45;17.50;99.90
17172;DHT22;8701;50.150;8.756;2023-07-02T01:17:49;17.40;99.90
17172;DHT22;8701;50.150;8.756;2023-07-02T01:21:55;17.50;99.90
17172;DHT22;8701;50.150;8.756;2023-07-02T01:25:58;17.30;99.90
17172;DHT22;8701;50.150;8.756;2023-07-02T01:30:00;17.20;99.90
17172;DHT22;8701;50.150;8.756;2023-07-02T01:34:03;17.20;99.90
17172;DHT22;8701;50.150;8.756;2023-07-02T01:38:07;17.10;99.90
17172;DHT22;8701;50.150;8.756;2023-07-02T01:42:10;17.10;99.90
17172;DHT22;8701;50.150;8.756;2023-07-02T01:46:13;17.00;99.90
17172;DHT22;8701;50.150;8.756;2023-07-02T01:50:15;16.90;99.90
17172;DHT22;8701;50.150;8.756;2023-07-02T01:54:19;16.90;99.90
17172;DHT22;8701;50.150;8.756;2023-07-02T01:58:21;16.90;99.90
17172;DHT22;8701;50.150;8.756;2023-07-02T02:02:24;16.90;99.90
17172;DHT22;8701;50.150;8.756;2023-07-02T02:06:26;16.80;99.90
17172;DHT22;8701;50.150;8.756;2023-07-02T02:10:29;16.80;99.90
17172;DHT22;8701;50.150;8.756;2023-07-02T02:14:32;16.70;99.90
17172;DHT22;8701;50.150;8.756;2023-07-02T02:18:34;16.60;99.90
17172;DHT22;8701;50.150;8.756;2023-07-02T02:22:36;16.60;99.90
17172;DHT22;8701;50.150;8.756;2023-07-02T02:26:41;16.60;99.90
17172;DHT22;8701;50.150;8.756;2023-07-02T02:30:43;16.60;99.90
17172;DHT22;8701;50.150;8.756;2023-07-02T02:34:45;16.60;99.90
17172;DHT22;8701;50.150;8.756;2023-07-02T02:38:47;16.70;99.90
17172;DHT22;8701;50.150;8.756;2023-07-02T02:42:52;16.70;99.90
17172;DHT22;8701;50.150;8.756;2023-07-02T02:46:54;16.80;99.90
17172;DHT22;8701;50.150;8.756;2023-07-02T02:50:58;16.80;99.90
17172;DHT22;8701;50.150;8.756;2023-07-02T02:55:00;16.80;99.90
17172;DHT22;8701;50.150;8.756;2023-07-02T02:59:04;16.80;99.90
17172;DHT22;8701;50.150;8.756;2023-07-02T03:03:06;16.90;99.90
17172;DHT22;8701;50.150;8.756;2023-07-02T03:07:08;16.90;99.90
17172;DHT22;8701;50.150;8.756;2023-07-02T03:11:10;16.90;99.90
17172;DHT22;8701;50.150;8.756;2023-07-02T03:15:14;16.90;99.90
17172;DHT22;8701;50.150;8.756;2023-07-02T03:19:18;16.90;99.90
17172;DHT22;8701;50.150;8.756;2023-07-02T03:23:20;16.70;99.90
17172;DHT22;8701;50.150;8.756;2023-07-02T03:27:22;16.70;99.90
17172;DHT22;8701;50.150;8.756;2023-07-02T03:31:26;16.70;99.90
17172;DHT22;8701;50.150;8.756;2023-07-02T03:35:28;16.70;99.90
17172;DHT22;8701;50.150;8.756;2023-07-02T03:39:31;16.80;99.90
17172;DHT22;8701;50.150;8.756;2023-07-02T03:43:33;16.70;99.90
17172;DHT22;8701;50.150;8.756;2023-07-02T03:47:37;16.60;99.90
17172;DHT22;8701;50.150;8.756;2023-07-02T03:51:39;16.60;99.90
17172;DHT22;8701;50.150;8.756;2023-07-02T03:55:41;16.60;99.90
17172;DHT22;8701;50.150;8.756;2023-07-02T03:59:43;16.70;99.90
17172;DHT22;8701;50.150;8.756;2023-07-02T04:03:49;16.70;99.90
17172;DHT22;8701;50.150;8.756;2023-07-02T04:07:52;16.70;99.90
17172;DHT22;8701;50.150;8.756;2023-07-02T04:11:54;16.60;99.90
17172;DHT22;8701;50.150;8.756;2023-07-02T04:15:56;16.60;99.90
17172;DHT22;8701;50.150;8.756;2023-07-02T04:20:01;16.70;99.90
17172;DHT22;8701;50.150;8.756;2023-07-02T04:24:04;16.70;99.90
17172;DHT22;8701;50.150;8.756;2023-07-02T04:28:07;16.70;99.90
17172;DHT22;8701;50.150;8.756;2023-07-02T04:32:09;16.70;99.90
17172;DHT22;8701;50.150;8.756;2023-07-02T04:36:13;16.80;99.90
17172;DHT22;8701;50.150;8.756;2023-07-02T04:40:15;16.80;99.90
17172;DHT22;8701;50.150;8.756;2023-07-02T04:44:18;16.80;99.90
17172;DHT22;8701;50.150;8.756;2023-07-02T04:48:21;16.80;99.90
17172;DHT22;8701;50.150;8.756;2023-07-02T04:52:25;16.90;99.90
17172;DHT22;8701;50.150;8.756;2023-07-02T04:56:27;17.00;99.90
17172;DHT22;8701;50.150;8.756;2023-07-02T05:00:29;16.90;99.90
17172;DHT22;8701;50.150;8.756;2023-07-02T05:04:31;16.90;99.90
17172;DHT22;8701;50.150;8.756;2023-07-02T05:08:35;16.90;99.90
17172;DHT22;8701;50.150;8.756;2023-07-02T05:12:37;16.80;99.90
17172;DHT22;8701;50.150;8.756;2023-07-02T05:16:40;16.80;99.90
17172;DHT22;8701;50.150;8.756;2023-07-02T05:20:42;16.90;99.90
17172;DHT22;8701;50.150;8.756;2023-07-02T05:24:45;16.90;99.90
17172;DHT22;8701;50.150;8.756;2023-07-02T05:28:48;16.90;99.90
17172;DHT22;8701;50.150;8.756;2023-07-02T05:32:50;17.00;99.90
17172;DHT22;8701;50.150;8.756;2023-07-02T05:36:52;17.10;99.90
17172;DHT22;8701;50.150;8.756;2023-07-02T05:40:56;17.10;99.90
17172;DHT22;8701;50.150;8.756;2023-07-02T05:44:58;17.10;99.90
17172;DHT22;8701;50.150;8.756;2023-07-02T05:49:00;17.10;99.90
17172;DHT22;8701;50.150;8.756;2023-07-02T05:53:02;17.20;99.90
17172;DHT22;8701;50.150;8.756;2023-07-02T05:57:06;17.30;99.90
17172;DHT22;8701;50.150;8.756;2023-07-02T06:01:08;17.40;99.90
17172;DHT22;8701;50.150;8.756;2023-07-02T06:05:10;17.40;99.90
17172;DHT22;8701;50.150;8.756;2023-07-02T06:09:12;17.50;99.90
17172;DHT22;8701;50.150;8.756;2023-07-02T06:13:16;17.50;99.90
17172;DHT22;8701;50.150;8.756;2023-07-02T06:17:18;17.50;99.90
17172;DHT22;8701;50.150;8.756;2023-07-02T06:21:21;17.40;99.90
17172;DHT22;8701;50.150;8.756;2023-07-02T06:25:24;17.40;99.90
17172;DHT22;8701;50.150;8.756;2023-07-02T06:29:27;17.40;99.90
17172;DHT22;8701;50.150;8.756;2023-07-02T06:33:30;17.50;99.90
17172;DHT22;8701;50.150;8.756;2023-07-02T06:37:32;17.70;99.90
17172;DHT22;8701;50.150;8.756;2023-07-02T06:41:34;17.90;99.90
17172;DHT22;8701;50.150;8.756;2023-07-02T06:45:38;18.10;99.90
17172;DHT22;8701;50.150;8.756;2023-07-02T06:49:40;18.30;99.90
17172;DHT22;8701;50.150;8.756;2023-07-02T06:53:42;18.60;99.90
17172;DHT22;8701;50.150;8.756;2023-07-02T06:57:45;18.70;99.90
17172;DHT22;8701;50.150;8.756;2023-07-02T07:01:49;18.80;99.90
17172;DHT22;8701;50.150;8.756;2023-07-02T07:05:51;18.70;99.90
17172;DHT22;8701;50.150;8.756;2023-07-02T07:09:53;18.70;99.90
17172;DHT22;8701;50.150;8.756;2023-07-02T07:13:55;18.80;99.90
17172;DHT22;8701;50.150;8.756;2023-07-02T07:17:59;19.00;99.90
17172;DHT22;8701;50.150;8.756;2023-07-02T07:22:01;19.30;99.90
17172;DHT22;8701;50.150;8.756;2023-07-02T07:26:03;19.70;99.90
17172;DHT22;8701;50.150;8.756;2023-07-02T07:30:06;19.80;99.90
17172;DHT22;8701;50.150;8.756;2023-07-02T07:34:10;19.90;99.90
17172;DHT22;8701;50.150;8.756;2023-07-02T07:38:13;20.00;99.90
17172;DHT22;8701;50.150;8.756;2023-07-02T07:42:15;20.10;99.90
17172;DHT22;8701;50.150;8.756;2023-07-02T07:46:17;20.30;99.90
17172;DHT22;8701;50.150;8.756;2023-07-02T07:50:21;20.20;99.90
17172;DHT22;8701;50.150;8.756;2023-07-02T07:54:23;20.10;99.90
17172;DHT22;8701;50.150;8.756;2023-07-02T07:58:26;20.30;99.90
17172;DHT22;8701;50.150;8.756;2023-07-02T08:02:28;20.40;99.90
17172;DHT22;8701;50.150;8.756;2023-07-02T08:06:32;20.60;99.90
17172;DHT22;8701;50.150;8.756;2023-07-02T08:10:34;20.70;99.90
17172;DHT22;8701;50.150;8.756;2023-07-02T08:14:36;20.90;99.90
17172;DHT22;8701;50.150;8.756;2023-07-02T08:18:39;20.70;99.90
17172;DHT22;8701;50.150;8.756;2023-07-02T08:22:42;20.70;99.90
17172;DHT22;8701;50.150;8.756;2023-07-02T08:26:44;20.70;99.90
17172;DHT22;8701;50.150;8.756;2023-07-02T08:30:48;20.80;99.90
17172;DHT22;8701;50.150;8.756;2023-07-02T08:34:51;21.40;99.90
17172;DHT22;8701;50.150;8.756;2023-07-02T08:38:55;21.80;99.90
17172;DHT22;8701;50.150;8.756;2023-07-02T08:42:57;21.80;99.90
17172;DHT22;8701;50.150;8.756;2023-07-02T08:47:01;22.00;99.90
17172;DHT22;8701;50.150;8.756;2023-07-02T08:51:04;22.20;99.90
17172;DHT22;8701;50.150;8.756;2023-07-02T08:55:08;23.10;99.90
17172;DHT22;8701;50.150;8.756;2023-07-02T08:59:10;23.00;99.90
17172;DHT22;8701;50.150;8.756;2023-07-02T09:03:13;23.10;99.90
17172;DHT22;8701;50.150;8.756;2023-07-02T09:07:16;23.80;99.90
17172;DHT22;8701;50.150;8.756;2023-07-02T09:11:19;23.80;99.90
17172;DHT22;8701;50.150;8.756;2023-07-02T09:15:22;23.10;99.90
17172;DHT22;8701;50.150;8.756;2023-07-02T09:19:24;22.90;99.90
17172;DHT22;8701;50.150;8.756;2023-07-02T09:23:34;23.30;99.90
17172;DHT22;8701;50.150;8.756;2023-07-02T09:27:40;24.30;99.90
17172;DHT22;8701;50.150;8.756;2023-07-02T09:31:44;25.10;99.90
17172;DHT22;8701;50.150;8.756;2023-07-02T09:35:47;25.20;99.90
17172;DHT22;8701;50.150;8.756;2023-07-02T09:39:51;25.20;99.90
17172;DHT22;8701;50.150;8.756;2023-07-02T09:43:57;24.60;99.90
17172;DHT22;8701;50.150;8.756;2023-07-02T09:47:59;24.90;99.90
17172;DHT22;8701;50.150;8.756;2023-07-02T09:52:04;25.40;99.90
17172;DHT22;8701;50.150;8.756;2023-07-02T09:56:08;24.40;99.90
17172;DHT22;8701;50.150;8.756;2023-07-02T10:00:13;23.80;99.90
17172;DHT22;8701;50.150;8.756;2023-07-02T10:04:17;24.00;99.90
17172;DHT22;8701;50.150;8.756;2023-07-02T10:08:20;24.60;99.90
17172;DHT22;8701;50.150;8.756;2023-07-02T10:12:29;23.90;99.90
17172;DHT22;8701;50.150;8.756;2023-07-02T10:16:33;23.70;99.90
17172;DHT22;8701;50.150;8.756;2023-07-02T10:20:36;23.40;99.90
17172;DHT22;8701;50.150;8.756;2023-07-02T10:24:50;23.20;99.90
17172;DHT22;8701;50.150;8.756;2023-07-02T10:28:57;22.90;99.90
17172;DHT22;8701;50.150;8.756;2023-07-02T10:33:12;22.60;99.90
17172;DHT22;8701;50.150;8.756;2023-07-02T10:37:14;22.50;99.90
17172;DHT22;8701;50.150;8.756;2023-07-02T10:41:24;22.50;99.90
17172;DHT22;8701;50.150;8.756;2023-07-02T10:45:33;23.30;99.90
17172;DHT22;8701;50.150;8.756;2023-07-02T10:49:37;24.10;99.90
17172;DHT22;8701;50.150;8.756;2023-07-02T10:53:39;24.70;99.90
17172;DHT22;8701;50.150;8.756;2023-07-02T10:57:42;25.30;99.90
17172;DHT22;8701;50.150;8.756;2023-07-02T11:01:44;25.60;99.90
17172;DHT22;8701;50.150;8.756;2023-07-02T11:05:48;25.40;99.90
17172;DHT22;8701;50.150;8.756;2023-07-02T11:09:51;25.10;99.90
17172;DHT22;8701;50.150;8.756;2023-07-02T11:13:53;24.30;99.90
17172;DHT22;8701;50.150;8.756;2023-07-02T11:17:55;24.00;99.90
17172;DHT22;8701;50.150;8.756;2023-07-02T11:21:59;24.30;99.90
17172;DHT22;8701;50.150;8.756;2023-07-02T11:26:02;24.60;99.90
17172;DHT22;8701;50.150;8.756;2023-07-02T11:30:12;24.60;99.90
17172;DHT22;8701;50.150;8.756;2023-07-02T11:34:15;25.00;99.90
17172;DHT22;8701;50.150;8.756;2023-07-02T11:38:19;25.50;99.90
17172;DHT22;8701;50.150;8.756;2023-07-02T11:42:21;25.60;99.90
17172;DHT22;8701;50.150;8.756;2023-07-02T11:46:23;25.80;99.90
17172;DHT22;8701;50.150;8.756;2023-07-02T11:50:25;26.00;99.90
17172;DHT22;8701;50.150;8.756;2023-07-02T11:54:29;26.40;99.90
17172;DHT22;8701;50.150;8.756;2023-07-02T11:58:32;26.40;99.90
17172;DHT22;8701;50.150;8.756;2023-07-02T12:02:34;25.90;99.90
17172;DHT22;8701;50.150;8.756;2023-07-02T12:06:36;25.70;99.90
17172;DHT22;8701;50.150;8.756;2023-07-02T12:10:40;25.40;98.90
17172;DHT22;8701;50.150;8.756;2023-07-02T12:14:42;25.70;99.90
17172;DHT22;8701;50.150;8.756;2023-07-02T12:18:44;25.70;99.90
17172;DHT22;8701;50.150;8.756;2023-07-02T12:22:47;25.40;98.10
17172;DHT22;8701;50.150;8.756;2023-07-02T12:26:50;24.70;97.30
17172;DHT22;8701;50.150;8.756;2023-07-02T12:30:53;24.60;99.40
17172;DHT22;8701;50.150;8.756;2023-07-02T12:34:55;25.20;96.80
17172;DHT22;8701;50.150;8.756;2023-07-02T12:38:57;25.40;95.00
17172;DHT22;8701;50.150;8.756;2023-07-02T12:43:01;25.40;95.10
17172;DHT22;8701;50.150;8.756;2023-07-02T12:47:03;25.40;96.50
17172;DHT22;8701;50.150;8.756;2023-07-02T12:51:06;25.50;97.40
17172;DHT22;8701;50.150;8.756;2023-07-02T12:55:08;25.50;94.90
17172;DHT22;8701;50.150;8.756;2023-07-02T12:59:14;25.30;96.10
17172;DHT22;8701;50.150;8.756;2023-07-02T13:03:17;25.20;96.80
17172;DHT22;8701;50.150;8.756;2023-07-02T13:07:19;25.10;96.60
17172;DHT22;8701;50.150;8.756;2023-07-02T13:11:23;24.80;98.80
17172;DHT22;8701;50.150;8.756;2023-07-02T13:15:26;25.00;97.40
17172;DHT22;8701;50.150;8.756;2023-07-02T13:19:29;25.00;97.30
17172;DHT22;8701;50.150;8.756;2023-07-02T13:23:31;25.20;99.90
17172;DHT22;8701;50.150;8.756;2023-07-02T13:27:33;25.40;99.20
17172;DHT22;8701;50.150;8.756;2023-07-02T13:31:37;25.60;95.90
17172;DHT22;8701;50.150;8.756;2023-07-02T13:35:39;25.60;95.40
17172;DHT22;8701;50.150;8.756;2023-07-02T13:39:42;25.50;96.10
17172;DHT22;8701;50.150;8.756;2023-07-02T13:43:44;25.10;95.60
17172;DHT22;8701;50.150;8.756;2023-07-02T13:47:47;25.20;98.60
17172;DHT22;8701;50.150;8.756;2023-07-02T13:51:50;25.10;96.00
17172;DHT22;8701;50.150;8.756;2023-07-02T13:55:52;25.00;99.40
17172;DHT22;8701;50.150;8.756;2023-07-02T13:59:55;25.10;96.80
17172;DHT22;8701;50.150;8.756;2023-07-02T14:03:58;25.00;99.30
17172;DHT22;8701;50.150;8.756;2023-07-02T14:08:00;25.10;96.90
17172;DHT22;8701;50.150;8.756;2023-07-02T14:12:03;25.00;97.10
17172;DHT22;8701;50.150;8.756;2023-07-02T14:16:07;24.60;95.00
17172;DHT22;8701;50.150;8.756;2023-07-02T14:20:10;24.70;97.20
17172;DHT22;8701;50.150;8.756;2023-07-02T14:24:12;24.60;97.70
17172;DHT22;8701;50.150;8.756;2023-07-02T14:28:14;24.90;98.00
17172;DHT22;8701;50.150;8.756;2023-07-02T14:32:19;25.20;95.70
17172;DHT22;8701;50.150;8.756;2023-07-02T14:36:21;25.20;97.70
17172;DHT22;8701;50.150;8.756;2023-07-02T14:40:23;25.20;97.30
17172;DHT22;8701;50.150;8.756;2023-07-02T14:44:26;25.30;96.50
17172;DHT22;8701;50.150;8.756;2023-07-02T14:48:30;25.40;98.20
17172;DHT22;8701;50.150;8.756;2023-07-02T14:52:32;25.50;98.50
17172;DHT22;8701;50.150;8.756;2023-07-02T14:56:34;25.20;97.00
17172;DHT22;8701;50.150;8.756;2023-07-02T15:00:43;24.90;96.70
17172;DHT22;8701;50.150;8.756;2023-07-02T15:04:47;24.90;99.10
17172;DHT22;8701;50.150;8.756;2023-07-02T15:08:49;24.90;97.40
17172;DHT22;8701;50.150;8.756;2023-07-02T15:12:52;24.70;97.50
17172;DHT22;8701;50.150;8.756;2023-07-02T15:16:54;24.70;95.70
17172;DHT22;8701;50.150;8.756;2023-07-02T15:20:58;24.70;96.10
17172;DHT22;8701;50.150;8.756;2023-07-02T15:25:00;24.60;94.30
17172;DHT22;8701;50.150;8.756;2023-07-02T15:29:02;24.50;97.10
17172;DHT22;8701;50.150;8.756;2023-07-02T15:33:05;24.50;96.00
17172;DHT22;8701;50.150;8.756;2023-07-02T15:37:08;24.50;96.70
17172;DHT22;8701;50.150;8.756;2023-07-02T15:41:12;24.50;96.50
17172;DHT22;8701;50.150;8.756;2023-07-02T15:45:15;24.40;97.30
17172;DHT22;8701;50.150;8.756;2023-07-02T15:49:17;24.40;96.40
17172;DHT22;8701;50.150;8.756;2023-07-02T15:53:21;24.50;96.50
17172;DHT22;8701;50.150;8.756;2023-07-02T15:57:25;24.30;96.30
17172;DHT22;8701;50.150;8.756;2023-07-02T16:01:28;24.20;96.00
17172;DHT22;8701;50.150;8.756;2023-07-02T16:05:36;24.30;98.10
17172;DHT22;8701;50.150;8.756;2023-07-02T16:09:40;24.20;94.50
17172;DHT22;8701;50.150;8.756;2023-07-02T16:13:43;24.10;94.60
17172;DHT22;8701;50.150;8.756;2023-07-02T16:17:46;24.10;95.30
17172;DHT22;8701;50.150;8.756;2023-07-02T16:21:49;24.00;94.40
17172;DHT22;8701;50.150;8.756;2023-07-02T16:25:57;23.90;95.30
17172;DHT22;8701;50.150;8.756;2023-07-02T16:30:01;23.80;95.60
17172;DHT22;8701;50.150;8.756;2023-07-02T16:34:04;23.80;95.10
17172;DHT22;8701;50.150;8.756;2023-07-02T16:38:14;23.70;95.50
17172;DHT22;8701;50.150;8.756;2023-07-02T16:42:18;23.60;93.90
17172;DHT22;8701;50.150;8.756;2023-07-02T16:46:20;23.60;94.30
17172;DHT22;8701;50.150;8.756;2023-07-02T16:50:22;23.50;94.80
17172;DHT22;8701;50.150;8.756;2023-07-02T16:54:25;23.50;94.40
17172;DHT22;8701;50.150;8.756;2023-07-02T16:58:30;23.50;94.30
17172;DHT22;8701;50.150;8.756;2023-07-02T17:02:33;23.40;94.40
17172;DHT22;8701;50.150;8.756;2023-07-02T17:06:36;23.30;94.30
17172;DHT22;8701;50.150;8.756;2023-07-02T17:10:39;23.20;96.30
17172;DHT22;8701;50.150;8.756;2023-07-02T17:14:44;23.20;95.50
17172;DHT22;8701;50.150;8.756;2023-07-02T17:18:48;23.20;97.30
17172;DHT22;8701;50.150;8.756;2023-07-02T17:22:51;23.20;96.40
17172;DHT22;8701;50.150;8.756;2023-07-02T17:26:55;23.10;96.00
17172;DHT22;8701;50.150;8.756;2023-07-02T17:30:59;23.10;95.10
17172;DHT22;8701;50.150;8.756;2023-07-02T17:35:02;23.00;97.20
17172;DHT22;8701;50.150;8.756;2023-07-02T17:39:04;22.90;95.40
17172;DHT22;8701;50.150;8.756;2023-07-02T17:43:07;22.80;97.10
17172;DHT22;8701;50.150;8.756;2023-07-02T17:47:14;22.80;95.90
17172;DHT22;8701;50.150;8.756;2023-07-02T17:51:16;22.80;96.80
17172;DHT22;8701;50.150;8.756;2023-07-02T17:55:18;22.70;97.70
17172;DHT22;8701;50.150;8.756;2023-07-02T17:59:21;22.70;97.30
17172;DHT22;8701;50.150;8.756;2023-07-02T18:03:27;22.70;96.20
17172;DHT22;8701;50.150;8.756;2023-07-02T18:07:30;22.60;97.60
17172;DHT22;8701;50.150;8.756;2023-07-02T18:11:32;22.60;97.40
17172;DHT22;8701;50.150;8.756;2023-07-02T18:15:35;22.50;98.00
17172;DHT22;8701;50.150;8.756;2023-07-02T18:19:39;22.50;96.20
17172;DHT22;8701;50.150;8.756;2023-07-02T18:23:41;22.50;95.40
17172;DHT22;8701;50.150;8.756;2023-07-02T18:27:43;22.50;95.60
17172;DHT22;8701;50.150;8.756;2023-07-02T18:31:46;22.50;97.80
17172;DHT22;8701;50.150;8.756;2023-07-02T18:35:49;22.40;96.00
17172;DHT22;8701;50.150;8.756;2023-07-02T18:39:52;22.30;97.30
17172;DHT22;8701;50.150;8.756;2023-07-02T18:43:54;22.20;97.10
17172;DHT22;8701;50.150;8.756;2023-07-02T18:47:56;22.10;96.70
17172;DHT22;8701;50.150;8.756;2023-07-02T18:52:01;22.10;97.10
17172;DHT22;8701;50.150;8.756;2023-07-02T18:56:05;22.00;98.60
17172;DHT22;8701;50.150;8.756;2023-07-02T19:00:08;21.90;99.10
17172;DHT22;8701;50.150;8.756;2023-07-02T19:04:11;21.80;98.40
17172;DHT22;8701;50.150;8.756;2023-07-02T19:08:16;21.80;98.30
17172;DHT22;8701;50.150;8.756;2023-07-02T19:12:18;21.70;98.80
17172;DHT22;8701;50.150;8.756;2023-07-02T19:16:20;21.70;99.60
17172;DHT22;8701;50.150;8.756;2023-07-02T19:20:23;21.60;98.30
17172;DHT22;8701;50.150;8.756;2023-07-02T19:24:26;21.50;99.20
17172;DHT22;8701;50.150;8.756;2023-07-02T19:28:28;21.50;99.30
17172;DHT22;8701;50.150;8.756;2023-07-02T19:32:31;21.40;98.20
17172;DHT22;8701;50.150;8.756;2023-07-02T19:36:37;21.30;98.80
17172;DHT22;8701;50.150;8.756;2023-07-02T19:40:41;21.30;99.30
17172;DHT22;8701;50.150;8.756;2023-07-02T19:44:43;21.20;99.10
17172;DHT22;8701;50.150;8.756;2023-07-02T19:48:46;21.20;99.30
17172;DHT22;8701;50.150;8.756;2023-07-02T19:52:49;21.10;99.70
17172;DHT22;8701;50.150;8.756;2023-07-02T19:56:53;21.10;99.90
17172;DHT22;8701;50.150;8.756;2023-07-02T20:00:55;21.00;99.90
17172;DHT22;8701;50.150;8.756;2023-07-02T20:04:59;21.10;99.90
17172;DHT22;8701;50.150;8.756;2023-07-02T20:09:02;21.10;99.90
17172;DHT22;8701;50.150;8.756;2023-07-02T20:13:06;21.00;99.90
17172;DHT22;8701;50.150;8.756;2023-07-02T20:17:08;21.00;99.90
17172;DHT22;8701;50.150;8.756;2023-07-02T20:21:10;20.90;99.80
17172;DHT22;8701;50.150;8.756;2023-07-02T20:25:14;20.90;99.90
17172;DHT22;8701;50.150;8.756;2023-07-02T20:29:18;20.90;99.90
17172;DHT22;8701;50.150;8.756;2023-07-02T20:33:20;20.80;99.90
17172;DHT22;8701;50.150;8.756;2023-07-02T20:37:22;20.70;99.90
17172;DHT22;8701;50.150;8.756;2023-07-02T20:41:27;20.60;99.90
17172;DHT22;8701;50.150;8.756;2023-07-02T20:45:31;20.50;99.90
17172;DHT22;8701;50.150;8.756;2023-07-02T20:49:35;20.50;99.90
17172;DHT22;8701;50.150;8.756;2023-07-02T20:53:38;20.50;99.90
17172;DHT22;8701;50.150;8.756;2023-07-02T20:57:40;20.40;99.90
17172;DHT22;8701;50.150;8.756;2023-07-02T21:01:44;20.40;99.90
17172;DHT22;8701;50.150;8.756;2023-07-02T21:05:46;20.40;99.90
17172;DHT22;8701;50.150;8.756;2023-07-02T21:09:50;20.30;99.90
17172;DHT22;8701;50.150;8.756;2023-07-02T21:13:52;20.30;99.90
17172;DHT22;8701;50.150;8.756;2023-07-02T21:17:56;20.30;99.90
17172;DHT22;8701;50.150;8.756;2023-07-02T21:21:58;20.20;99.90
17172;DHT22;8701;50.150;8.756;2023-07-02T21:26:02;20.20;99.90
17172;DHT22;8701;50.150;8.756;2023-07-02T21:30:05;20.20;99.90
17172;DHT22;8701;50.150;8.756;2023-07-02T21:34:09;20.20;99.90
17172;DHT22;8701;50.150;8.756;2023-07-02T21:38:12;20.20;99.90
17172;DHT22;8701;50.150;8.756;2023-07-02T21:42:14;20.10;99.90
17172;DHT22;8701;50.150;8.756;2023-07-02T21:46:18;20.10;99.90
17172;DHT22;8701;50.150;8.756;2023-07-02T21:50:21;20.10;99.90
17172;DHT22;8701;50.150;8.756;2023-07-02T21:54:24;20.00;99.90
17172;DHT22;8701;50.150;8.756;2023-07-02T21:58:27;20.00;99.90
17172;DHT22;8701;50.150;8.756;2023-07-02T22:02:29;20.00;99.90
17172;DHT22;8701;50.150;8.756;2023-07-02T22:06:33;20.00;99.90
17172;DHT22;8701;50.150;8.756;2023-07-02T22:10:35;20.00;99.90
17172;DHT22;8701;50.150;8.756;2023-07-02T22:14:37;19.90;99.90
17172;DHT22;8701;50.150;8.756;2023-07-02T22:18:40;19.80;99.90
17172;DHT22;8701;50.150;8.756;2023-07-02T22:22:45;19.80;99.90
17172;DHT22;8701;50.150;8.756;2023-07-02T22:26:47;19.70;99.90
17172;DHT22;8701;50.150;8.756;2023-07-02T22:30:50;19.70;99.90
17172;DHT22;8701;50.150;8.756;2023-07-02T22:34:52;19.70;99.90
17172;DHT22;8701;50.150;8.756;2023-07-02T22:38:56;19.60;99.90
17172;DHT22;8701;50.150;8.756;2023-07-02T22:42:58;19.60;99.90
17172;DHT22;8701;50.150;8.756;2023-07-02T22:47:00;19.60;99.90
17172;DHT22;8701;50.150;8.756;2023-07-02T22:51:02;19.50;99.90
17172;DHT22;8701;50.150;8.756;2023-07-02T22:55:07;19.40;99.90
17172;DHT22;8701;50.150;8.756;2023-07-02T22:59:09;19.40;99.90
17172;DHT22;8701;50.150;8.756;2023-07-02T23:03:12;19.30;99.90
17172;DHT22;8701;50.150;8.756;2023-07-02T23:07:14;19.30;99.90
17172;DHT22;8701;50.150;8.756;2023-07-02T23:11:18;19.20;99.90
17172;DHT22;8701;50.150;8.756;2023-07-02T23:15:20;19.20;99.90
17172;DHT22;8701;50.150;8.756;2023-07-02T23:19:22;19.10;99.90
17172;DHT22;8701;50.150;8.756;2023-07-02T23:23:25;19.10;99.90
17172;DHT22;8701;50.150;8.756;2023-07-02T23:27:30;19.00;99.90
17172;DHT22;8701;50.150;8.756;2023-07-02T23:31:39;19.00;99.90
17172;DHT22;8701;50.150;8.756;2023-07-02T23:35:41;18.90;99.90
17172;DHT22;8701;50.150;8.756;2023-07-02T23:39:45;18.90;99.90
17172;DHT22;8701;50.150;8.756;2023-07-02T23:43:49;18.80;99.90
17172;DHT22;8701;50.150;8.756;2023-07-02T23:47:51;18.80;99.90
17172;DHT22;8701;50.150;8.756;2023-07-02T23:51:53;18.70;99.90
17172;DHT22;8701;50.150;8.756;2023-07-02T23:55:56;18.60;99.90
17172;DHT22;8701;50.150;8.756;2023-07-02T23:59:59;18.60;99.90
